createdAt,value
2023-08-30T00:00:07.056Z,70.35
2023-08-30T00:02:35.366Z,70.42
2023-08-30T00:05:05.736Z,70.17
2023-08-30T00:07:33.616Z,69.34
2023-08-30T00:10:01.412Z,69.47
2023-08-30T00:12:29.217Z,69.79
2023-08-30T00:14:59.124Z,69.09
2023-08-30T00:17:26.995Z,69.33
2023-08-30T00:19:56.478Z,69.58
2023-08-30T00:22:25.632Z,69.62
2023-08-30T00:24:53.585Z,69.17
2023-08-30T00:27:21.719Z,68.81
2023-08-30T00:29:49.526Z,67.97
2023-08-30T00:32:17.324Z,68.09
2023-08-30T00:34:45.322Z,68.04
2023-08-30T00:37:13.122Z,67.73
2023-08-30T00:39:42.404Z,67.96
2023-08-30T00:42:12.392Z,67.98
2023-08-30T00:44:40.303Z,67.71
2023-08-30T00:47:08.186Z,67.21
2023-08-30T00:49:36.203Z,67.71
2023-08-30T00:52:08.288Z,69.39
2023-08-30T00:54:36.561Z,69.45
2023-08-30T00:57:08.944Z,70.85
2023-08-30T00:59:36.927Z,71.13
2023-08-30T01:02:06.249Z,70.53
2023-08-30T01:04:35.414Z,70.11
2023-08-30T01:07:05.654Z,69.30
2023-08-30T01:09:35.198Z,68.71
2023-08-30T01:12:12.981Z,68.15
2023-08-30T01:14:53.930Z,73.46
2023-08-30T01:17:24.138Z,72.21
2023-08-30T01:19:59.061Z,76.02
2023-08-30T01:22:40.739Z,78.44
2023-08-30T01:25:18.197Z,75.65
2023-08-30T01:27:49.288Z,77.87
2023-08-30T01:30:18.040Z,80.32
2023-08-30T01:32:47.261Z,77.31
2023-08-30T01:35:18.720Z,78.83
2023-08-30T01:37:47.929Z,76.68
2023-08-30T01:40:19.952Z,76.80
2023-08-30T01:42:50.681Z,77.90
2023-08-30T01:45:19.487Z,77.35
2023-08-30T01:47:50.685Z,74.10
2023-08-30T01:50:18.992Z,73.84
2023-08-30T01:52:47.931Z,72.02
2023-08-30T01:55:22.437Z,75.74
2023-08-30T01:57:52.067Z,75.29
2023-08-30T02:00:20.088Z,73.92
2023-08-30T02:02:50.048Z,73.43
2023-08-30T02:05:18.122Z,71.49
2023-08-30T02:07:53.730Z,70.71
2023-08-30T02:10:26.648Z,69.09
2023-08-30T02:12:59.750Z,69.71
2023-08-30T02:15:29.035Z,69.20
2023-08-30T02:17:57.710Z,74.72
2023-08-30T02:20:25.891Z,74.41
2023-08-30T02:22:53.682Z,73.96
2023-08-30T02:25:25.124Z,73.31
2023-08-30T02:27:53.182Z,73.70
2023-08-30T02:30:22.428Z,73.19
2023-08-30T02:32:54.892Z,72.26
2023-08-30T02:35:22.938Z,74.36
2023-08-30T02:37:50.726Z,74.65
2023-08-30T02:40:18.569Z,73.65
2023-08-30T02:42:46.469Z,73.05
2023-08-30T02:45:14.481Z,72.05
2023-08-30T02:47:43.553Z,71.11
2023-08-30T02:50:11.372Z,70.63
2023-08-30T02:52:39.224Z,73.23
2023-08-30T02:55:07.880Z,72.29
2023-08-30T02:57:35.640Z,74.13
2023-08-30T03:00:06.948Z,74.66
2023-08-30T03:02:35.206Z,73.35
2023-08-30T03:05:08.048Z,73.71
2023-08-30T03:07:38.981Z,72.35
2023-08-30T03:10:08.843Z,71.17
2023-08-30T03:12:38.352Z,70.75
2023-08-30T03:15:07.173Z,70.52
2023-08-30T03:17:35.279Z,70.62
2023-08-30T03:20:04.652Z,70.33
2023-08-30T03:22:34.328Z,69.99
2023-08-30T03:25:04.078Z,69.27
2023-08-30T03:27:31.962Z,69.00
2023-08-30T03:29:59.804Z,69.12
2023-08-30T03:32:33.215Z,69.50
2023-08-30T03:35:01.529Z,72.29
2023-08-30T03:37:29.278Z,73.43
2023-08-30T03:39:58.649Z,72.70
2023-08-30T03:42:26.730Z,73.51
2023-08-30T03:44:54.645Z,72.96
2023-08-30T03:47:22.454Z,71.43
2023-08-30T03:49:51.488Z,73.08
2023-08-30T03:52:21.434Z,71.75
2023-08-30T03:54:49.507Z,72.47
2023-08-30T03:57:18.599Z,71.57
2023-08-30T03:59:46.750Z,72.15
2023-08-30T04:02:14.788Z,71.88
2023-08-30T04:04:44.808Z,70.94
2023-08-30T04:07:12.557Z,71.19
2023-08-30T04:09:40.305Z,72.07
2023-08-30T04:12:08.968Z,72.32
2023-08-30T04:14:38.170Z,71.07
2023-08-30T04:17:08.262Z,71.04
2023-08-30T04:19:36.072Z,70.60
2023-08-30T04:22:03.981Z,70.45
2023-08-30T04:24:31.759Z,70.14
2023-08-30T04:26:59.542Z,69.75
2023-08-30T04:29:27.273Z,69.38
2023-08-30T04:31:56.540Z,68.68
2023-08-30T04:34:24.526Z,67.66
2023-08-30T04:36:52.463Z,68.59
2023-08-30T04:39:20.499Z,68.87
2023-08-30T04:41:50.472Z,68.79
2023-08-30T04:44:18.558Z,68.34
2023-08-30T04:46:46.486Z,68.41
2023-08-30T04:49:15.823Z,68.47
2023-08-30T04:51:44.940Z,68.73
2023-08-30T04:54:12.905Z,68.09
2023-08-30T04:56:40.649Z,68.25
2023-08-30T04:59:08.729Z,68.23
2023-08-30T05:01:45.178Z,68.30
2023-08-30T05:04:15.204Z,67.90
2023-08-30T05:06:43.016Z,68.04
2023-08-30T05:09:11.798Z,67.92
2023-08-30T05:11:39.596Z,67.89
2023-08-30T05:14:07.939Z,67.46
2023-08-30T05:16:35.729Z,67.43
2023-08-30T05:19:03.767Z,67.41
2023-08-30T05:21:35.114Z,67.78
2023-08-30T05:24:06.757Z,67.50
2023-08-30T05:26:35.457Z,67.29
2023-08-30T05:29:05.834Z,67.06
2023-08-30T05:31:33.907Z,67.38
2023-08-30T05:34:05.401Z,67.14
2023-08-30T05:36:53.960Z,66.60
2023-08-30T05:39:27.197Z,66.35
2023-08-30T05:41:58.027Z,66.02
2023-08-30T05:44:25.837Z,66.48
2023-08-30T05:46:54.881Z,66.18
2023-08-30T05:49:22.805Z,65.87
2023-08-30T05:51:53.094Z,66.27
2023-08-30T05:54:20.919Z,66.87
2023-08-30T05:56:48.720Z,66.54
2023-08-30T05:59:16.826Z,65.88
2023-08-30T06:01:47.843Z,66.39
2023-08-30T06:04:18.251Z,66.51
2023-08-30T06:06:46.091Z,66.21
2023-08-30T06:09:15.511Z,65.98
2023-08-30T06:11:43.747Z,66.19
2023-08-30T06:14:11.709Z,66.18
2023-08-30T06:16:39.646Z,66.37
2023-08-30T06:19:07.799Z,66.12
2023-08-30T06:21:35.676Z,65.52
2023-08-30T06:24:04.374Z,65.29
2023-08-30T06:26:33.855Z,65.43
2023-08-30T06:29:04.860Z,64.95
2023-08-30T06:31:34.283Z,64.46
2023-08-30T06:34:02.351Z,64.35
2023-08-30T06:36:30.256Z,64.20
2023-08-30T06:38:58.102Z,64.29
2023-08-30T06:41:25.970Z,64.55
2023-08-30T06:43:58.176Z,64.51
2023-08-30T06:46:28.506Z,64.27
2023-08-30T06:48:56.348Z,63.37
2023-08-30T06:51:24.290Z,62.46
2023-08-30T06:56:20.836Z,62.20
2023-08-30T06:58:48.680Z,62.40
2023-08-30T07:01:17.846Z,62.42
2023-08-30T07:03:46.138Z,63.14
2023-08-30T07:06:13.987Z,61.91
2023-08-30T07:08:41.875Z,62.93
2023-08-30T07:11:23.565Z,62.85
2023-08-30T07:13:56.048Z,64.96
2023-08-30T07:16:25.227Z,64.77
2023-08-30T07:18:53.045Z,64.44
2023-08-30T07:21:20.890Z,66.19
2023-08-30T07:23:48.720Z,65.41
2023-08-30T07:26:16.603Z,64.19
2023-08-30T07:28:44.495Z,65.97
2023-08-30T07:31:14.991Z,64.21
2023-08-30T07:33:46.813Z,63.76
2023-08-30T07:36:14.642Z,63.27
2023-08-30T07:38:42.480Z,62.93
2023-08-30T07:41:12.943Z,63.53
2023-08-30T07:43:43.974Z,64.02
2023-08-30T07:46:11.807Z,63.98
2023-08-30T07:48:39.836Z,63.05
2023-08-30T07:51:09.099Z,62.83
2023-08-30T07:53:36.920Z,62.48
2023-08-30T07:56:05.396Z,64.25
2023-08-30T07:58:33.334Z,62.53
2023-08-30T08:01:01.402Z,62.00
2023-08-30T08:03:31.138Z,63.37
2023-08-30T08:06:01.014Z,62.11
2023-08-30T08:08:30.309Z,62.06
2023-08-30T08:11:01.774Z,63.85
2023-08-30T08:13:29.809Z,62.44
2023-08-30T08:15:58.635Z,62.67
2023-08-30T08:18:26.699Z,64.18
2023-08-30T08:20:54.876Z,65.63
2023-08-30T08:23:22.762Z,63.46
2023-08-30T08:25:59.566Z,62.71
2023-08-30T08:28:27.681Z,62.00
2023-08-30T08:30:55.524Z,62.06
2023-08-30T08:33:25.161Z,60.32
2023-08-30T08:35:53.211Z,61.64
2023-08-30T08:38:21.092Z,62.79
2023-08-30T08:40:51.377Z,61.41
2023-08-30T08:43:21.761Z,61.36
2023-08-30T08:45:51.280Z,60.78
2023-08-30T08:48:19.149Z,59.56
2023-08-30T08:50:51.283Z,59.54
2023-08-30T08:53:19.419Z,60.13
2023-08-30T08:55:49.000Z,60.26
2023-08-30T08:58:17.465Z,58.36
2023-08-30T09:00:47.545Z,58.06
2023-08-30T09:03:16.571Z,55.68
2023-08-30T09:05:45.122Z,54.03
2023-08-30T09:08:14.390Z,55.05
2023-08-30T09:10:42.424Z,54.92
2023-08-30T09:13:10.808Z,52.97
2023-08-30T09:15:41.236Z,52.98
2023-08-30T09:18:18.619Z,50.19
2023-08-30T09:20:46.754Z,51.20
2023-08-30T09:23:21.470Z,50.73
2023-08-30T09:25:55.963Z,50.11
2023-08-30T09:28:24.227Z,51.44
2023-08-30T09:30:52.503Z,51.32
2023-08-30T09:33:24.149Z,51.91
2023-08-30T09:35:52.558Z,49.56
2023-08-30T09:38:20.774Z,49.56
2023-08-30T09:40:49.083Z,48.40
2023-08-30T09:43:22.826Z,49.74
2023-08-30T09:45:50.685Z,51.18
2023-08-30T09:48:22.602Z,51.89
2023-08-30T09:50:55.593Z,50.02
2023-08-30T09:53:27.109Z,47.89
2023-08-30T09:55:55.550Z,49.21
2023-08-30T09:58:24.411Z,48.67
2023-08-30T10:00:52.895Z,47.22
2023-08-30T10:03:30.710Z,47.93
2023-08-30T10:06:05.396Z,47.10
2023-08-30T10:08:38.048Z,46.95
2023-08-30T10:11:08.414Z,46.16
2023-08-30T10:13:38.503Z,47.59
2023-08-30T10:16:07.159Z,46.95
2023-08-30T10:18:38.230Z,45.56
2023-08-30T10:21:14.574Z,45.34
2023-08-30T10:23:43.249Z,45.28
2023-08-30T10:26:11.514Z,44.93
2023-08-30T10:28:42.022Z,44.76
2023-08-30T10:31:10.519Z,44.41
2023-08-30T10:33:49.394Z,46.39
2023-08-30T10:36:24.853Z,43.96
2023-08-30T10:38:53.741Z,45.00
2023-08-30T10:41:22.665Z,45.10
2023-08-30T10:43:58.015Z,43.95
2023-08-30T10:46:37.425Z,43.89
2023-08-30T10:49:12.446Z,44.67
2023-08-30T10:51:42.593Z,43.21
2023-08-30T10:54:14.608Z,46.05
2023-08-30T10:56:50.385Z,42.68
2023-08-30T10:59:19.513Z,41.84
2023-08-30T11:01:48.784Z,41.45
2023-08-30T11:04:19.377Z,40.91
2023-08-30T11:06:49.255Z,45.91
2023-08-30T11:09:19.019Z,46.16
2023-08-30T11:11:47.160Z,48.24
2023-08-30T11:14:15.846Z,50.25
2023-08-30T11:16:44.011Z,45.93
2023-08-30T11:19:13.568Z,43.59
2023-08-30T11:21:44.428Z,44.77
2023-08-30T11:24:14.432Z,41.27
2023-08-30T11:26:42.423Z,40.58
2023-08-30T11:29:11.019Z,42.69
2023-08-30T11:31:38.897Z,48.27
2023-08-30T11:34:09.306Z,51.39
2023-08-30T11:36:38.406Z,53.12
2023-08-30T11:39:06.883Z,54.36
2023-08-30T11:41:36.138Z,53.21
2023-08-30T11:44:04.536Z,51.83
2023-08-30T11:46:32.426Z,51.34
2023-08-30T11:49:00.369Z,51.25
2023-08-30T11:51:28.342Z,51.08
2023-08-30T11:53:57.051Z,52.47
2023-08-30T11:56:25.137Z,58.37
2023-08-30T11:58:56.677Z,56.54
2023-08-30T12:01:24.945Z,55.91
2023-08-30T12:03:52.930Z,59.97
2023-08-30T12:06:20.865Z,64.25
2023-08-30T12:08:48.797Z,63.39
2023-08-30T12:11:21.297Z,63.69
2023-08-30T12:13:49.286Z,61.92
2023-08-30T12:16:19.928Z,64.71
2023-08-30T12:18:47.903Z,63.37
2023-08-30T12:21:17.020Z,63.49
2023-08-30T12:23:44.926Z,63.46
2023-08-30T12:26:14.971Z,61.09
2023-08-30T12:28:45.726Z,61.02
2023-08-30T12:31:13.912Z,59.27
2023-08-30T12:33:43.218Z,58.78
2023-08-30T12:36:15.856Z,58.80
2023-08-30T12:38:43.714Z,56.97
2023-08-30T12:41:11.599Z,56.31
2023-08-30T12:43:39.522Z,57.10
2023-08-30T12:46:08.552Z,55.93
2023-08-30T12:48:36.481Z,58.93
2023-08-30T12:51:06.077Z,58.97
2023-08-30T12:53:36.405Z,59.59
2023-08-30T12:56:05.706Z,56.67
2023-08-30T12:58:35.529Z,56.68
2023-08-30T13:01:03.620Z,55.39
2023-08-30T13:03:31.512Z,53.77
2023-08-30T13:06:01.190Z,55.58
2023-08-30T13:08:30.718Z,54.22
2023-08-30T13:11:01.624Z,53.34
2023-08-30T13:13:29.440Z,52.34
2023-08-30T13:15:57.246Z,51.06
2023-08-30T13:18:25.605Z,51.26
2023-08-30T13:20:56.412Z,54.02
2023-08-30T13:23:24.151Z,54.39
2023-08-30T13:25:58.988Z,54.02
2023-08-30T13:28:30.027Z,55.02
2023-08-30T13:31:01.476Z,51.74
2023-08-30T13:33:32.826Z,50.54
2023-08-30T13:36:03.332Z,50.44
2023-08-30T13:38:31.120Z,51.42
2023-08-30T13:41:05.128Z,50.68
2023-08-30T13:43:33.330Z,50.09
2023-08-30T13:46:01.547Z,49.09
2023-08-30T13:48:29.403Z,50.50
2023-08-30T13:50:59.328Z,48.65
2023-08-30T13:53:29.623Z,47.32
2023-08-30T13:55:57.419Z,49.35
2023-08-30T13:58:26.634Z,48.25
2023-08-30T14:00:54.371Z,48.54
2023-08-30T14:03:23.014Z,48.57
2023-08-30T14:05:50.826Z,47.82
2023-08-30T14:08:19.740Z,48.30
2023-08-30T14:10:47.665Z,48.40
2023-08-30T14:13:15.445Z,48.63
2023-08-30T14:15:44.644Z,49.31
2023-08-30T14:18:13.221Z,48.79
2023-08-30T14:20:43.469Z,48.98
2023-08-30T14:23:13.214Z,46.70
2023-08-30T14:25:41.512Z,46.96
2023-08-30T14:28:09.458Z,47.17
2023-08-30T14:30:37.412Z,47.81
2023-08-30T14:33:06.725Z,47.62
2023-08-30T14:35:34.964Z,47.90
2023-08-30T14:38:02.928Z,47.39
2023-08-30T14:40:30.786Z,46.12
2023-08-30T14:43:00.718Z,48.09
2023-08-30T14:45:30.531Z,47.51
2023-08-30T14:47:58.421Z,46.62
2023-08-30T14:50:27.559Z,51.74
2023-08-30T14:52:56.220Z,55.36
2023-08-30T14:55:25.405Z,56.93
2023-08-30T14:57:53.716Z,56.81
2023-08-30T15:00:21.728Z,56.91
2023-08-30T15:02:49.701Z,55.12
2023-08-30T15:05:18.373Z,54.86
2023-08-30T15:07:47.720Z,64.96
2023-08-30T15:10:16.984Z,63.38
2023-08-30T15:12:45.057Z,60.49
2023-08-30T15:15:13.091Z,59.54
2023-08-30T15:17:41.026Z,58.71
2023-08-30T15:20:10.003Z,57.54
2023-08-30T15:22:37.818Z,58.09
2023-08-30T15:25:07.788Z,59.53
2023-08-30T15:27:35.733Z,55.49
2023-08-30T15:30:03.696Z,55.11
2023-08-30T15:32:33.057Z,55.05
2023-08-30T15:35:01.012Z,54.50
2023-08-30T15:37:28.981Z,54.93
2023-08-30T15:40:05.050Z,52.45
2023-08-30T15:42:34.552Z,51.97
2023-08-30T15:45:02.626Z,51.90
2023-08-30T15:47:30.511Z,52.46
2023-08-30T15:49:58.392Z,56.10
2023-08-30T15:52:26.248Z,52.38
2023-08-30T15:54:55.626Z,49.65
2023-08-30T15:57:25.658Z,49.91
2023-08-30T15:59:55.169Z,49.39
2023-08-30T16:02:23.108Z,49.22
2023-08-30T16:04:51.434Z,55.08
2023-08-30T16:07:21.418Z,50.08
2023-08-30T16:09:49.422Z,48.31
2023-08-30T16:12:17.451Z,52.06
2023-08-30T16:14:45.542Z,49.75
2023-08-30T16:17:14.785Z,49.61
2023-08-30T16:19:42.677Z,48.97
2023-08-30T16:22:14.502Z,51.17
2023-08-30T16:24:42.355Z,51.93
2023-08-30T16:27:10.215Z,52.62
2023-08-30T16:29:40.187Z,54.10
2023-08-30T16:32:08.101Z,55.16
2023-08-30T16:34:38.002Z,53.79
2023-08-30T16:37:06.043Z,54.40
2023-08-30T16:39:34.838Z,54.51
2023-08-30T16:42:02.698Z,54.45
2023-08-30T16:44:30.751Z,54.85
2023-08-30T16:46:58.743Z,53.62
2023-08-30T16:49:28.362Z,51.81
2023-08-30T16:51:57.656Z,51.94
2023-08-30T16:54:25.618Z,51.27
2023-08-30T16:56:55.213Z,50.98
2023-08-30T16:59:23.448Z,51.02
2023-08-30T17:01:51.578Z,52.25
2023-08-30T17:04:21.863Z,55.63
2023-08-30T17:06:49.999Z,55.63
2023-08-30T17:09:19.236Z,51.89
2023-08-30T17:11:47.192Z,52.08
2023-08-30T17:14:19.217Z,52.18
2023-08-30T17:17:03.968Z,52.04
2023-08-30T17:19:33.540Z,53.17
2023-08-30T17:22:01.511Z,54.69
2023-08-30T17:24:32.984Z,52.71
2023-08-30T17:27:04.300Z,52.58
2023-08-30T17:29:32.161Z,54.67
2023-08-30T17:32:00.101Z,54.38
2023-08-30T17:34:28.030Z,54.25
2023-08-30T17:36:59.137Z,54.69
2023-08-30T17:39:29.395Z,53.36
2023-08-30T17:42:01.087Z,54.28
2023-08-30T17:44:28.928Z,54.61
2023-08-30T17:46:56.815Z,55.74
2023-08-30T17:49:24.749Z,55.74
2023-08-30T17:51:55.173Z,54.52
2023-08-30T17:54:23.089Z,54.75
2023-08-30T17:56:53.550Z,55.84
2023-08-30T17:59:22.796Z,57.00
2023-08-30T18:01:51.515Z,56.79
2023-08-30T18:04:19.567Z,55.68
2023-08-30T18:06:47.606Z,55.23
2023-08-30T18:09:16.224Z,55.50
2023-08-30T18:11:44.421Z,56.47
2023-08-30T18:14:12.371Z,57.11
2023-08-30T18:16:41.897Z,56.80
2023-08-30T18:19:09.802Z,57.16
2023-08-30T18:21:37.657Z,55.77
2023-08-30T18:24:17.724Z,56.90
2023-08-30T18:26:49.787Z,57.17
2023-08-30T18:29:19.505Z,57.43
2023-08-30T18:31:49.117Z,58.19
2023-08-30T18:34:17.847Z,58.75
2023-08-30T18:36:46.275Z,59.70
2023-08-30T18:39:15.016Z,60.22
2023-08-30T18:41:42.908Z,59.04
2023-08-30T18:44:10.930Z,58.33
2023-08-30T18:46:38.800Z,58.31
2023-08-30T18:49:08.119Z,57.93
2023-08-30T18:51:38.447Z,57.09
2023-08-30T18:54:07.649Z,57.50
2023-08-30T18:56:38.170Z,56.67
2023-08-30T18:59:06.610Z,58.03
2023-08-30T19:01:36.670Z,60.08
2023-08-30T19:04:06.266Z,61.39
2023-08-30T19:06:36.549Z,63.75
2023-08-30T19:09:05.815Z,68.40
2023-08-30T19:11:34.870Z,65.78
2023-08-30T19:14:04.899Z,66.08
2023-08-30T19:16:32.750Z,66.60
2023-08-30T19:19:00.649Z,65.81
2023-08-30T19:21:28.552Z,64.50
2023-08-30T19:23:57.825Z,64.93
2023-08-30T19:26:29.995Z,64.02
2023-08-30T19:28:57.907Z,62.82
2023-08-30T19:31:26.234Z,63.50
2023-08-30T19:33:54.050Z,64.46
2023-08-30T19:36:22.851Z,66.59
2023-08-30T19:38:53.117Z,67.80
2023-08-30T19:41:26.446Z,66.41
2023-08-30T19:43:55.619Z,66.26
2023-08-30T19:46:24.530Z,65.11
2023-08-30T19:48:52.835Z,66.27
2023-08-30T19:51:22.498Z,69.10
2023-08-30T19:53:52.025Z,64.68
2023-08-30T19:56:20.355Z,63.25
2023-08-30T19:58:49.644Z,62.64
2023-08-30T20:01:20.774Z,61.42
2023-08-30T20:03:48.830Z,61.73
2023-08-30T20:06:16.742Z,61.58
2023-08-30T20:08:44.596Z,64.69
2023-08-30T20:11:12.467Z,67.38
2023-08-30T20:13:40.787Z,65.79
2023-08-30T20:16:12.321Z,65.86
2023-08-30T20:18:40.218Z,66.41
2023-08-30T20:21:13.834Z,67.04
2023-08-30T20:23:41.739Z,66.35
2023-08-30T20:26:11.820Z,66.60
2023-08-30T20:28:39.646Z,67.37
2023-08-30T20:31:09.066Z,68.29
2023-08-30T20:33:38.235Z,70.36
2023-08-30T20:36:06.798Z,71.97
2023-08-30T20:38:34.651Z,73.19
2023-08-30T20:41:02.904Z,72.06
2023-08-30T20:43:30.777Z,70.73
2023-08-30T20:45:59.198Z,69.54
2023-08-30T20:48:30.671Z,67.37
2023-08-30T20:51:00.120Z,65.95
2023-08-30T20:53:34.286Z,65.42
2023-08-30T20:56:05.430Z,68.23
2023-08-30T20:58:40.886Z,70.79
2023-08-30T21:01:08.983Z,69.67
2023-08-30T21:03:37.188Z,69.94
2023-08-30T21:06:06.784Z,68.50
2023-08-30T21:08:37.094Z,70.20
2023-08-30T21:11:04.991Z,71.03
2023-08-30T21:13:33.121Z,70.37
2023-08-30T21:16:00.932Z,70.66
2023-08-30T21:18:28.712Z,69.26
2023-08-30T21:20:58.330Z,68.90
2023-08-30T21:23:28.354Z,67.71
2023-08-30T21:25:56.419Z,67.05
2023-08-30T21:28:24.341Z,66.78
2023-08-30T21:30:52.139Z,66.26
2023-08-30T21:33:20.723Z,66.94
2023-08-30T21:35:48.911Z,69.72
2023-08-30T21:38:18.172Z,68.49
2023-08-30T21:40:50.095Z,67.59
2023-08-30T21:43:17.911Z,69.69
2023-08-30T21:45:45.846Z,68.06
2023-08-30T21:48:13.748Z,67.60
2023-08-30T21:50:41.610Z,69.43
2023-08-30T21:53:12.201Z,70.50
2023-08-30T21:55:40.849Z,72.25
2023-08-30T21:58:10.021Z,70.14
2023-08-30T22:00:38.678Z,71.61
2023-08-30T22:03:07.356Z,70.68
2023-08-30T22:05:36.320Z,69.38
2023-08-30T22:08:05.326Z,68.03
2023-08-30T22:10:33.579Z,70.43
2023-08-30T22:13:01.454Z,71.85
2023-08-30T22:15:33.024Z,73.59
2023-08-30T22:18:01.159Z,72.02
2023-08-30T22:20:29.061Z,72.75
2023-08-30T22:22:56.953Z,70.64
2023-08-30T22:25:27.441Z,73.39
2023-08-30T22:27:55.654Z,75.41
2023-08-30T22:30:25.875Z,74.34
2023-08-30T22:32:56.853Z,72.15
2023-08-30T22:35:24.831Z,72.88
2023-08-30T22:37:52.573Z,71.50
2023-08-30T22:40:23.046Z,75.05
2023-08-30T22:42:52.116Z,74.83
2023-08-30T22:45:20.113Z,74.51
2023-08-30T22:47:47.892Z,72.76
2023-08-30T22:50:17.425Z,71.60
2023-08-30T22:52:45.316Z,72.07
2023-08-30T22:55:13.235Z,71.57
2023-08-30T22:57:41.078Z,74.76
2023-08-30T23:00:09.961Z,75.64
2023-08-30T23:02:38.784Z,75.17
2023-08-30T23:05:07.866Z,72.38
2023-08-30T23:07:37.015Z,71.77
2023-08-30T23:10:06.046Z,75.38
2023-08-30T23:12:36.645Z,74.34
2023-08-30T23:15:05.190Z,72.91
2023-08-30T23:17:44.420Z,71.87
2023-08-30T23:20:13.937Z,70.94
2023-08-30T23:22:43.897Z,72.65
2023-08-30T23:25:12.405Z,71.84
2023-08-30T23:27:42.251Z,73.83
2023-08-30T23:30:10.753Z,72.22
2023-08-30T23:32:39.052Z,73.22
2023-08-30T23:35:08.069Z,71.03
2023-08-30T23:37:36.096Z,69.84
2023-08-30T23:40:10.702Z,71.97
2023-08-30T23:42:38.810Z,72.69
2023-08-30T23:45:07.889Z,69.33
2023-08-30T23:47:35.968Z,68.93
2023-08-30T23:50:04.875Z,69.90
2023-08-30T23:52:32.645Z,71.23
2023-08-30T23:55:00.625Z,71.17
2023-08-30T23:57:29.702Z,68.10
2023-08-30T23:59:58.063Z,70.23
